createdAt,value
2022-09-25T00:00:43.876Z,100724.72
2022-09-25T00:03:12.193Z,100724.72
2022-09-25T00:05:40.095Z,100728.31
2022-09-25T00:08:07.608Z,100726.53
2022-09-25T00:10:34.288Z,100714.09
2022-09-25T00:13:00.985Z,100730.13
2022-09-25T00:15:27.804Z,100715.03
2022-09-25T00:17:54.500Z,100723.03
2022-09-25T00:20:23.969Z,100714.13
2022-09-25T00:22:50.941Z,100717.72
2022-09-25T00:25:18.050Z,100717.69
2022-09-25T00:27:45.592Z,100721.28
2022-09-25T00:30:13.330Z,100726.63
2022-09-25T00:32:40.451Z,100733.72
2022-09-25T00:35:07.640Z,100723.03
2022-09-25T00:37:35.237Z,100721.28
2022-09-25T00:40:02.603Z,100714.16
2022-09-25T00:42:29.329Z,100715.06
2022-09-25T00:44:57.000Z,100712.47
2022-09-25T00:47:32.627Z,100709.78
2022-09-25T00:50:01.696Z,100715.97
2022-09-25T00:52:29.395Z,100703.56
2022-09-25T00:54:59.888Z,100707.13
2022-09-25T00:57:29.999Z,100715.19
2022-09-25T01:00:00.194Z,100714.34
2022-09-25T01:02:33.773Z,100716.16
2022-09-25T01:05:04.325Z,100717.06
2022-09-25T01:07:32.277Z,100714.38
2022-09-25T01:09:59.285Z,100717.97
2022-09-25T01:12:25.995Z,100711.72
2022-09-25T01:14:52.677Z,100711.72
2022-09-25T01:17:28.264Z,100709.06
2022-09-25T01:20:16.585Z,100712.63
2022-09-25T01:22:55.348Z,100709.13
2022-09-25T01:26:16.309Z,100715.38
2022-09-25T01:29:00.158Z,100714.53
2022-09-25T01:31:36.832Z,100710.13
2022-09-25T01:34:20.020Z,100711.06
2022-09-25T01:36:50.284Z,100713.75
2022-09-25T01:39:22.964Z,100716.47
2022-09-25T01:41:58.867Z,100711.13
2022-09-25T01:44:30.812Z,100717.34
2022-09-25T01:47:04.312Z,100711.13
2022-09-25T01:49:37.387Z,100711.16
2022-09-25T01:52:07.288Z,100709.34
2022-09-25T01:54:37.698Z,100718.31
2022-09-25T01:57:10.574Z,100708.50
2022-09-25T01:59:47.193Z,100712.97
2022-09-25T02:02:19.688Z,100713.84
2022-09-25T02:04:54.496Z,100709.41
2022-09-25T02:07:28.037Z,100715.63
2022-09-25T02:09:57.453Z,100708.50
2022-09-25T02:12:34.207Z,100705.81
2022-09-25T02:15:22.200Z,100709.34
2022-09-25T02:18:13.763Z,100702.28
2022-09-25T02:20:42.363Z,100704.97
2022-09-25T02:23:22.321Z,100710.31
2022-09-25T02:26:04.763Z,100707.63
2022-09-25T02:28:31.570Z,100713.88
2022-09-25T02:30:59.293Z,100721.91
2022-09-25T02:33:26.429Z,100707.66
2022-09-25T02:35:53.723Z,100705.03
2022-09-25T02:38:21.238Z,100706.84
2022-09-25T02:41:02.684Z,100710.38
2022-09-25T02:43:46.627Z,100707.75
2022-09-25T02:46:22.772Z,100705.09
2022-09-25T02:49:12.677Z,100710.44
2022-09-25T02:51:52.468Z,100712.22
2022-09-25T02:54:31.960Z,100708.72
2022-09-25T02:57:23.398Z,100709.63
2022-09-25T02:59:53.602Z,100706.13
2022-09-25T03:02:21.373Z,100704.38
2022-09-25T03:04:49.069Z,100702.59
2022-09-25T03:07:16.782Z,100705.28
2022-09-25T03:09:46.808Z,100699.09
2022-09-25T03:12:14.577Z,100693.78
2022-09-25T03:14:41.367Z,100699.09
2022-09-25T03:17:09.549Z,100694.69
2022-09-25T03:19:36.510Z,100698.28
2022-09-25T03:22:03.219Z,100693.81
2022-09-25T03:24:29.998Z,100693.00
2022-09-25T03:26:56.761Z,100693.97
2022-09-25T03:29:23.477Z,100700.16
2022-09-25T03:31:50.201Z,100711.72
2022-09-25T03:34:18.054Z,100703.78
2022-09-25T03:36:47.407Z,100704.69
2022-09-25T03:39:17.581Z,100702.00
2022-09-25T03:41:45.344Z,100703.78
2022-09-25T03:44:12.230Z,100706.47
2022-09-25T03:46:39.236Z,100695.81
2022-09-25T03:49:06.034Z,100700.25
2022-09-25T03:51:33.645Z,100704.78
2022-09-25T03:54:00.540Z,100706.59
2022-09-25T03:56:28.478Z,100704.00
2022-09-25T03:58:55.518Z,100703.13
2022-09-25T04:01:23.859Z,100703.13
2022-09-25T04:03:50.934Z,100699.63
2022-09-25T04:06:20.106Z,100704.09
2022-09-25T04:08:48.036Z,100704.16
2022-09-25T04:11:16.096Z,100702.38
2022-09-25T04:13:44.042Z,100705.03
2022-09-25T04:16:12.342Z,100699.75
2022-09-25T04:18:42.742Z,100698.00
2022-09-25T04:21:11.960Z,100698.88
2022-09-25T04:23:39.213Z,100694.47
2022-09-25T04:26:06.382Z,100696.28
2022-09-25T04:28:33.644Z,100696.38
2022-09-25T04:31:00.725Z,100696.38
2022-09-25T04:33:46.118Z,100697.28
2022-09-25T04:36:12.901Z,100695.56
2022-09-25T04:38:39.652Z,100688.47
2022-09-25T04:41:08.092Z,100689.34
2022-09-25T04:43:35.370Z,100692.88
2022-09-25T04:46:06.769Z,100691.94
2022-09-25T04:48:34.152Z,100687.53
2022-09-25T04:51:00.865Z,100690.19
2022-09-25T04:53:29.822Z,100697.31
2022-09-25T04:56:05.290Z,100694.69
2022-09-25T04:58:32.023Z,100692.06
2022-09-25T05:01:06.826Z,100694.75
2022-09-25T05:03:33.625Z,100692.09
2022-09-25T05:06:00.432Z,100700.09
2022-09-25T05:08:27.710Z,100691.16
2022-09-25T05:10:54.459Z,100698.25
2022-09-25T05:13:21.149Z,100692.91
2022-09-25T05:15:48.069Z,100696.44
2022-09-25T05:18:19.779Z,100687.53
2022-09-25T05:20:46.670Z,100692.88
2022-09-25T05:23:14.102Z,100698.22
2022-09-25T05:25:40.816Z,100698.16
2022-09-25T05:28:07.669Z,100701.72
2022-09-25T05:30:35.162Z,100695.56
2022-09-25T05:33:01.901Z,100708.94
2022-09-25T05:35:31.495Z,100701.81
2022-09-25T05:37:58.544Z,100701.00
2022-09-25T05:40:25.625Z,100698.31
2022-09-25T05:42:53.418Z,100692.09
2022-09-25T05:45:21.672Z,100693.94
2022-09-25T05:47:48.365Z,100688.63
2022-09-25T05:50:16.830Z,100687.72
2022-09-25T05:52:43.617Z,100697.50
2022-09-25T05:55:10.645Z,100698.41
2022-09-25T05:57:37.852Z,100695.75
2022-09-25T06:00:07.799Z,100698.41
2022-09-25T06:02:34.613Z,100691.28
2022-09-25T06:05:01.442Z,100697.50
2022-09-25T06:07:28.154Z,100696.63
2022-09-25T06:09:54.842Z,100700.19
2022-09-25T06:12:23.292Z,100697.56
2022-09-25T06:14:50.017Z,100700.28
2022-09-25T06:17:16.804Z,100700.22
2022-09-25T06:19:43.530Z,100695.75
2022-09-25T06:22:10.367Z,100700.19
2022-09-25T06:24:37.068Z,100693.06
2022-09-25T06:27:03.810Z,100696.69
2022-09-25T06:29:30.481Z,100694.84
2022-09-25T06:31:57.245Z,100699.31
2022-09-25T06:34:23.955Z,100698.44
2022-09-25T06:36:50.688Z,100696.66
2022-09-25T06:39:17.390Z,100698.44
2022-09-25T06:41:44.106Z,100687.75
2022-09-25T06:44:10.844Z,100691.28
2022-09-25T06:46:37.806Z,100692.13
2022-09-25T06:49:04.551Z,100694.75
2022-09-25T06:51:34.763Z,100689.41
2022-09-25T06:54:01.724Z,100692.91
2022-09-25T06:56:28.408Z,100692.91
2022-09-25T06:58:55.119Z,100700.00
2022-09-25T07:01:21.932Z,100706.25
2022-09-25T07:03:49.767Z,100698.31
2022-09-25T07:06:21.693Z,100703.66
2022-09-25T07:08:49.408Z,100703.66
2022-09-25T07:11:21.840Z,100705.44
2022-09-25T07:13:54.983Z,100700.09
2022-09-25T07:16:24.155Z,100704.53
2022-09-25T07:18:53.751Z,100701.91
2022-09-25T07:21:21.928Z,100708.13
2022-09-25T07:23:49.488Z,100706.34
2022-09-25T07:26:22.787Z,100709.97
2022-09-25T07:28:55.077Z,100713.53
2022-09-25T07:31:27.890Z,100724.25
2022-09-25T07:33:55.113Z,100722.47
2022-09-25T07:36:21.816Z,100712.72
2022-09-25T07:38:50.260Z,100716.22
2022-09-25T07:41:18.533Z,100715.34
2022-09-25T07:43:45.558Z,100718.88
2022-09-25T07:46:12.585Z,100717.06
2022-09-25T07:48:39.616Z,100716.13
2022-09-25T07:51:08.558Z,100722.28
2022-09-25T07:53:35.316Z,100720.47
2022-09-25T07:56:06.490Z,100716.91
2022-09-25T07:58:35.250Z,100723.06
2022-09-25T08:01:04.529Z,100710.63
2022-09-25T08:03:31.486Z,100717.66
2022-09-25T08:06:03.554Z,100721.19
2022-09-25T08:08:30.519Z,100722.94
2022-09-25T08:11:06.679Z,100722.94
2022-09-25T08:13:34.339Z,100730.09
2022-09-25T08:16:21.575Z,100731.84
2022-09-25T08:18:49.356Z,100730.97
2022-09-25T08:21:17.898Z,100734.53
2022-09-25T08:23:49.237Z,100729.09
2022-09-25T08:26:23.433Z,100733.47
2022-09-25T08:28:50.825Z,100737.91
2022-09-25T08:31:17.784Z,100728.94
2022-09-25T08:33:49.244Z,100734.25
2022-09-25T08:36:16.635Z,100731.56
2022-09-25T08:38:43.713Z,100735.94
2022-09-25T08:41:16.691Z,100731.47
2022-09-25T08:44:05.403Z,100735.91
2022-09-25T08:47:03.369Z,100740.31
2022-09-25T08:50:09.721Z,100743.84
2022-09-25T08:52:37.652Z,100739.41
2022-09-25T08:55:08.354Z,100738.50
2022-09-25T08:57:43.442Z,100735.91
2022-09-25T09:00:21.540Z,100737.69
2022-09-25T09:02:54.056Z,100740.31
2022-09-25T09:05:26.354Z,100743.94
2022-09-25T09:08:18.829Z,100743.03
2022-09-25T09:10:52.049Z,100753.69
2022-09-25T09:13:36.365Z,100749.28
2022-09-25T09:16:10.098Z,100743.84
2022-09-25T09:18:39.459Z,100752.66
2022-09-25T09:21:30.263Z,100749.97
2022-09-25T09:24:18.805Z,100741.00
2022-09-25T09:27:07.773Z,100743.66
2022-09-25T09:30:03.060Z,100747.22
2022-09-25T09:32:47.395Z,100747.31
2022-09-25T09:35:36.237Z,100752.66
2022-09-25T09:38:32.558Z,100746.41
2022-09-25T09:41:21.811Z,100745.47
2022-09-25T09:44:04.022Z,100741.97
2022-09-25T09:46:53.518Z,100748.19
2022-09-25T09:49:44.145Z,100749.00
2022-09-25T09:52:17.697Z,100737.41
2022-09-25T09:54:57.954Z,100745.34
2022-09-25T09:57:27.368Z,100748.88
2022-09-25T10:00:03.701Z,100743.53
2022-09-25T10:03:05.227Z,100736.38
2022-09-25T10:05:35.299Z,100722.16
2022-09-25T10:08:02.044Z,100737.22
2022-09-25T10:10:35.482Z,100736.28
2022-09-25T10:13:06.711Z,100736.22
2022-09-25T10:15:38.824Z,100734.47
2022-09-25T10:18:06.337Z,100732.56
2022-09-25T10:20:39.666Z,100735.16
2022-09-25T10:23:33.715Z,100728.03
2022-09-25T10:26:00.781Z,100736.91
2022-09-25T10:28:32.338Z,100735.94
2022-09-25T10:30:59.957Z,100736.84
2022-09-25T10:33:29.686Z,100735.88
2022-09-25T10:35:56.734Z,100734.06
2022-09-25T10:38:29.672Z,100736.66
2022-09-25T10:41:00.466Z,100733.94
2022-09-25T10:43:27.170Z,100736.66
2022-09-25T10:46:14.767Z,100739.44
2022-09-25T10:49:00.796Z,100735.94
2022-09-25T10:51:27.647Z,100736.06
2022-09-25T10:54:09.524Z,100738.84
2022-09-25T10:56:38.859Z,100744.25
2022-09-25T10:59:22.147Z,100741.63
2022-09-25T11:01:50.842Z,100733.59
2022-09-25T11:04:22.330Z,100736.22
2022-09-25T11:06:52.384Z,100738.84
2022-09-25T11:09:23.416Z,100723.69
2022-09-25T11:11:52.923Z,100734.25
2022-09-25T11:14:32.661Z,100727.03
2022-09-25T11:17:01.300Z,100724.28
2022-09-25T11:19:30.354Z,100725.16
2022-09-25T11:22:31.642Z,100718.75
2022-09-25T11:25:03.780Z,100722.16
2022-09-25T11:27:36.862Z,100719.28
2022-09-25T11:30:16.405Z,100719.22
2022-09-25T11:33:00.462Z,100719.22
2022-09-25T11:35:48.427Z,100719.16
2022-09-25T11:39:00.366Z,100722.66
2022-09-25T11:41:50.954Z,100704.94
2022-09-25T11:44:31.862Z,100722.63
2022-09-25T11:47:17.300Z,100709.97
2022-09-25T11:49:48.254Z,100701.94
2022-09-25T11:52:18.397Z,100704.56
2022-09-25T11:55:12.208Z,100706.16
2022-09-25T11:58:04.535Z,100701.47
2022-09-25T12:00:41.882Z,100703.00
2022-09-25T12:03:14.815Z,100705.44
2022-09-25T12:05:57.481Z,100698.16
2022-09-25T12:08:53.380Z,100700.63
2022-09-25T12:11:45.404Z,100692.41
2022-09-25T12:14:17.195Z,100691.34
2022-09-25T12:17:05.919Z,100683.22
2022-09-25T12:19:58.368Z,100690.31
2022-09-25T12:23:00.346Z,100700.06
2022-09-25T12:25:50.550Z,100694.81
2022-09-25T12:28:29.327Z,100691.44
2022-09-25T12:31:23.668Z,100690.69
2022-09-25T12:34:04.056Z,100692.50
2022-09-25T12:36:41.892Z,100681.72
2022-09-25T12:39:32.751Z,100684.22
2022-09-25T12:42:37.931Z,100678.75
2022-09-25T12:45:25.716Z,100682.19
2022-09-25T12:48:01.005Z,100675.94
2022-09-25T12:50:33.941Z,100672.22
2022-09-25T12:53:06.897Z,100665.69
2022-09-25T12:56:05.194Z,100659.22
2022-09-25T12:58:50.566Z,100650.13
2022-09-25T13:01:25.897Z,100649.03
2022-09-25T13:04:17.767Z,100653.44
2022-09-25T13:06:52.104Z,100646.50
2022-09-25T13:09:41.362Z,100648.53
2022-09-25T13:12:16.783Z,100641.41
2022-09-25T13:14:52.324Z,100635.25
2022-09-25T13:17:19.036Z,100637.91
2022-09-25T13:19:45.986Z,100643.28
2022-09-25T13:22:24.895Z,100637.91
2022-09-25T13:25:13.782Z,100638.97
2022-09-25T13:27:43.290Z,100629.31
2022-09-25T13:30:21.000Z,100627.72
2022-09-25T13:32:49.055Z,100634.94
2022-09-25T13:35:20.202Z,100638.50
2022-09-25T13:37:48.370Z,100635.78
2022-09-25T13:40:40.668Z,100634.88
2022-09-25T13:43:25.820Z,100626.88
2022-09-25T13:46:19.956Z,100630.59
2022-09-25T13:48:47.543Z,100622.53
2022-09-25T13:51:18.112Z,100631.28
2022-09-25T13:54:12.097Z,100631.16
2022-09-25T13:56:41.802Z,100616.78
2022-09-25T13:59:16.801Z,100623.69
2022-09-25T14:01:54.089Z,100617.03
2022-09-25T14:04:29.317Z,100614.06
2022-09-25T14:07:04.564Z,100613.78
2022-09-25T14:09:33.046Z,100609.84
2022-09-25T14:11:59.908Z,100610.38
2022-09-25T14:14:32.120Z,100610.25
2022-09-25T14:16:59.789Z,100608.50
2022-09-25T14:19:34.782Z,100597.78
2022-09-25T14:22:03.538Z,100600.53
2022-09-25T14:24:31.049Z,100604.13
2022-09-25T14:27:01.198Z,100602.47
2022-09-25T14:29:32.872Z,100600.94
2022-09-25T14:32:54.500Z,100601.13
2022-09-25T14:35:35.926Z,100595.03
2022-09-25T14:38:37.087Z,100596.81
2022-09-25T14:41:29.707Z,100587.09
2022-09-25T14:44:09.967Z,100594.25
2022-09-25T14:46:37.056Z,100589.03
2022-09-25T14:49:16.007Z,100588.22
2022-09-25T14:51:47.163Z,100584.66
2022-09-25T14:54:17.710Z,100586.47
2022-09-25T14:56:48.934Z,100583.78
2022-09-25T14:59:39.480Z,100579.25
2022-09-25T15:02:17.704Z,100576.53
2022-09-25T15:04:57.737Z,100572.00
2022-09-25T15:07:26.019Z,100576.34
2022-09-25T15:09:58.234Z,100576.28
2022-09-25T15:12:30.807Z,100588.78
2022-09-25T15:15:01.520Z,100582.59
2022-09-25T15:17:31.270Z,100583.50
2022-09-25T15:20:01.084Z,100588.84
2022-09-25T15:22:32.534Z,100587.06
2022-09-25T15:25:03.978Z,100585.34
2022-09-25T15:27:31.301Z,100587.09
2022-09-25T15:30:03.589Z,100593.44
2022-09-25T15:32:43.884Z,100579.22
2022-09-25T15:35:15.986Z,100587.28
2022-09-25T15:37:43.492Z,100582.88
2022-09-25T15:40:28.562Z,100580.25
2022-09-25T15:42:55.930Z,100566.06
2022-09-25T15:45:50.382Z,100575.03
2022-09-25T15:48:31.283Z,100565.19
2022-09-25T15:51:04.457Z,100569.56
2022-09-25T15:53:39.313Z,100568.53
2022-09-25T15:56:15.704Z,100564.00
2022-09-25T15:58:47.594Z,100564.16
2022-09-25T16:01:36.437Z,100562.47
2022-09-25T16:04:28.514Z,100566.97
2022-09-25T16:06:55.427Z,100559.06
2022-09-25T16:09:30.287Z,100562.69
2022-09-25T16:12:25.023Z,100566.28
2022-09-25T16:14:52.128Z,100560.13
2022-09-25T16:17:32.906Z,100551.31
2022-09-25T16:20:08.175Z,100550.47
2022-09-25T16:22:41.775Z,100556.75
2022-09-25T16:25:16.332Z,100550.56
2022-09-25T16:27:44.731Z,100554.16
2022-09-25T16:30:20.722Z,100554.16
2022-09-25T16:32:56.404Z,100561.38
2022-09-25T16:36:05.642Z,100563.22
2022-09-25T16:38:34.938Z,100557.97
2022-09-25T16:41:04.505Z,100566.06
2022-09-25T16:43:33.446Z,100567.88
2022-09-25T16:46:11.208Z,100564.34
2022-09-25T16:48:39.472Z,100565.25
2022-09-25T16:51:11.237Z,100566.19
2022-09-25T16:53:40.000Z,100565.34
2022-09-25T16:56:07.138Z,100568.97
2022-09-25T16:58:34.209Z,100569.00
2022-09-25T17:01:04.700Z,100568.22
2022-09-25T17:03:49.920Z,100564.69
2022-09-25T17:06:18.255Z,100563.88
2022-09-25T17:08:45.318Z,100566.59
2022-09-25T17:11:12.792Z,100563.91
2022-09-25T17:13:40.268Z,100562.22
2022-09-25T17:16:07.557Z,100560.47
2022-09-25T17:18:34.990Z,100556.03
2022-09-25T17:21:04.689Z,100560.53
2022-09-25T17:23:31.664Z,100565.88
2022-09-25T17:26:02.513Z,100563.25
2022-09-25T17:28:29.759Z,100560.59
2022-09-25T17:30:56.615Z,100556.16
2022-09-25T17:33:23.523Z,100555.34
2022-09-25T17:36:04.145Z,100555.38
2022-09-25T17:38:34.282Z,100567.06
2022-09-25T17:41:05.618Z,100562.66
2022-09-25T17:43:33.593Z,100566.31
2022-09-25T17:46:01.150Z,100567.28
2022-09-25T17:48:30.652Z,100560.31
2022-09-25T17:51:15.911Z,100570.25
2022-09-25T17:53:43.441Z,100569.53
2022-09-25T17:56:11.594Z,100567.00
2022-09-25T17:58:38.837Z,100560.03
2022-09-25T18:01:14.135Z,100562.88
2022-09-25T18:03:41.028Z,100569.25
2022-09-25T18:06:07.909Z,100562.25
2022-09-25T18:08:35.154Z,100560.66
2022-09-25T18:11:01.997Z,100566.16
2022-09-25T18:13:28.874Z,100566.31
2022-09-25T18:15:58.316Z,100565.59
2022-09-25T18:18:25.377Z,100563.97
2022-09-25T18:21:10.807Z,100563.16
2022-09-25T18:23:38.628Z,100567.78
2022-09-25T18:26:08.729Z,100561.72
2022-09-25T18:28:35.550Z,100558.34
2022-09-25T18:31:02.371Z,100562.88
2022-09-25T18:33:29.322Z,100558.50
2022-09-25T18:35:56.197Z,100560.44
2022-09-25T18:38:23.026Z,100552.56
2022-09-25T18:40:49.872Z,100556.22
2022-09-25T18:43:16.782Z,100557.22
2022-09-25T18:45:52.525Z,100555.56
2022-09-25T18:48:19.435Z,100548.56
2022-09-25T18:50:47.463Z,100553.09
2022-09-25T18:53:15.211Z,100554.06
2022-09-25T18:55:43.679Z,100550.56
2022-09-25T18:58:11.419Z,100555.09
2022-09-25T19:00:38.813Z,100554.31
2022-09-25T19:03:06.085Z,100555.28
2022-09-25T19:05:33.526Z,100556.28
2022-09-25T19:08:00.485Z,100550.13
2022-09-25T19:10:30.340Z,100553.78
2022-09-25T19:12:57.131Z,100542.31
2022-09-25T19:15:24.781Z,100542.31
2022-09-25T19:17:51.633Z,100545.97
2022-09-25T19:20:18.452Z,100543.38
2022-09-25T19:22:45.726Z,100538.13
2022-09-25T19:25:12.546Z,100538.16
2022-09-25T19:27:39.358Z,100528.47
2022-09-25T19:30:06.671Z,100526.78
2022-09-25T19:32:33.525Z,100533.03
2022-09-25T19:35:00.332Z,100542.88
2022-09-25T19:37:29.992Z,100540.25
2022-09-25T19:40:15.652Z,100532.31
2022-09-25T19:42:42.479Z,100528.81
2022-09-25T19:45:09.750Z,100531.53
2022-09-25T19:47:36.535Z,100527.09
2022-09-25T19:50:06.993Z,100525.38
2022-09-25T19:52:33.826Z,100520.06
2022-09-25T19:55:00.944Z,100527.25
2022-09-25T19:57:27.820Z,100523.72
2022-09-25T19:59:54.943Z,100525.53
2022-09-25T20:02:21.765Z,100530.88
2022-09-25T20:04:48.907Z,100515.84
2022-09-25T20:07:16.523Z,100518.53
2022-09-25T20:09:44.535Z,100508.78
2022-09-25T20:12:11.456Z,100514.13
2022-09-25T20:14:38.275Z,100513.28
2022-09-25T20:17:09.549Z,100509.75
2022-09-25T20:19:36.764Z,100511.63
2022-09-25T20:22:03.593Z,100514.34
2022-09-25T20:24:30.369Z,100503.72
2022-09-25T20:26:57.177Z,100501.97
2022-09-25T20:29:24.155Z,100493.13
2022-09-25T20:31:50.995Z,100487.00
2022-09-25T20:34:19.498Z,100492.34
2022-09-25T20:36:46.613Z,100487.97
2022-09-25T20:39:18.224Z,100486.28
2022-09-25T20:41:48.125Z,100481.03
2022-09-25T20:44:15.038Z,100477.53
2022-09-25T20:46:42.014Z,100485.56
2022-09-25T20:49:10.112Z,100476.72
2022-09-25T20:51:37.045Z,100486.56
2022-09-25T20:54:09.150Z,100482.13
2022-09-25T20:56:37.755Z,100482.22
2022-09-25T20:59:05.274Z,100479.59
2022-09-25T21:01:34.942Z,100485.84
2022-09-25T21:04:03.354Z,100487.63
2022-09-25T21:06:32.714Z,100485.84
2022-09-25T21:09:01.863Z,100485.84
2022-09-25T21:11:30.183Z,100492.94
2022-09-25T21:13:59.457Z,100490.25
2022-09-25T21:16:28.219Z,100484.03
2022-09-25T21:18:59.087Z,100479.59
2022-09-25T21:21:26.970Z,100474.31
2022-09-25T21:23:55.731Z,100480.53
2022-09-25T21:26:25.155Z,100477.91
2022-09-25T21:28:53.612Z,100471.75
2022-09-25T21:31:22.870Z,100459.41
2022-09-25T21:33:54.012Z,100466.56
2022-09-25T21:36:21.581Z,100459.50
2022-09-25T21:38:49.356Z,100464.88
2022-09-25T21:41:21.113Z,100462.28
2022-09-25T21:43:48.102Z,100458.78
2022-09-25T21:46:18.089Z,100453.50
2022-09-25T21:48:50.098Z,100442.88
2022-09-25T21:51:18.860Z,100440.28
2022-09-25T21:53:45.639Z,100448.34
2022-09-25T21:56:19.292Z,100451.97
2022-09-25T21:58:46.548Z,100451.09
2022-09-25T22:01:25.814Z,100452.94
2022-09-25T22:03:55.248Z,100449.47
2022-09-25T22:06:26.312Z,100444.16
2022-09-25T22:08:57.731Z,100438.91
2022-09-25T22:11:24.673Z,100444.22
2022-09-25T22:13:51.964Z,100438.97
2022-09-25T22:16:21.775Z,100430.09
2022-09-25T22:18:58.349Z,100431.88
2022-09-25T22:21:27.639Z,100430.09
2022-09-25T22:23:54.843Z,100425.75
2022-09-25T22:26:21.822Z,100422.19
2022-09-25T22:28:49.072Z,100429.31
2022-09-25T22:31:21.456Z,100428.47
2022-09-25T22:33:49.018Z,100426.72
2022-09-25T22:36:15.783Z,100419.63
2022-09-25T22:38:42.579Z,100425.88
2022-09-25T22:41:11.557Z,100426.78
2022-09-25T22:43:38.619Z,100426.78
2022-09-25T22:46:06.686Z,100424.19
2022-09-25T22:48:33.520Z,100421.56
2022-09-25T22:51:04.051Z,100413.63
2022-09-25T22:53:33.367Z,100414.50
2022-09-25T22:56:09.454Z,100414.50
2022-09-25T22:58:36.186Z,100412.75
2022-09-25T23:01:05.596Z,100416.31
2022-09-25T23:03:32.372Z,100418.94
2022-09-25T23:06:00.441Z,100412.75
2022-09-25T23:08:27.285Z,100418.94
2022-09-25T23:11:07.295Z,100422.50
2022-09-25T23:13:36.176Z,100415.41
2022-09-25T23:16:07.694Z,100420.72
2022-09-25T23:18:37.927Z,100417.19
2022-09-25T23:21:05.280Z,100414.56
2022-09-25T23:23:32.199Z,100410.09
2022-09-25T23:26:06.089Z,100412.75
2022-09-25T23:28:37.164Z,100398.63
2022-09-25T23:31:09.293Z,100393.22
2022-09-25T23:33:36.954Z,100395.00
2022-09-25T23:36:08.984Z,100389.63
2022-09-25T23:38:36.034Z,100381.63
2022-09-25T23:41:03.279Z,100386.88
2022-09-25T23:43:30.102Z,100377.13
2022-09-25T23:45:56.913Z,100378.88
2022-09-25T23:48:23.759Z,100366.41
2022-09-25T23:50:52.508Z,100369.06
2022-09-25T23:53:19.717Z,100360.25
2022-09-25T23:55:46.661Z,100365.59
2022-09-25T23:58:13.400Z,100361.19
